createdAt,value
2022-10-12T00:00:56.161Z,8.15
2022-10-12T00:03:24.258Z,9.27
2022-10-12T00:06:03.582Z,8.45
2022-10-12T00:08:31.805Z,8.93
2022-10-12T00:10:59.846Z,7.43
2022-10-12T00:13:28.630Z,10.68
2022-10-12T00:15:56.798Z,8.05
2022-10-12T00:18:24.816Z,8.70
2022-10-12T00:21:03.633Z,10.77
2022-10-12T00:23:32.357Z,10.15
2022-10-12T00:26:03.725Z,10.90
2022-10-12T00:28:32.264Z,10.18
2022-10-12T00:31:00.388Z,13.30
2022-10-12T00:33:29.289Z,11.57
2022-10-12T00:35:57.433Z,12.30
2022-10-12T00:38:26.926Z,10.25
2022-10-12T00:40:54.910Z,10.63
2022-10-12T00:43:28.863Z,10.85
2022-10-12T00:45:57.690Z,11.40
2022-10-12T00:48:26.421Z,9.45
2022-10-12T00:50:56.011Z,9.63
2022-10-12T00:53:27.458Z,10.32
2022-10-12T00:56:00.660Z,10.38
2022-10-12T00:58:31.496Z,10.85
2022-10-12T01:01:02.347Z,10.65
2022-10-12T01:03:30.822Z,10.85
2022-10-12T01:05:59.495Z,12.07
2022-10-12T01:08:30.086Z,12.43
2022-10-12T01:10:58.965Z,9.80
2022-10-12T01:13:27.714Z,17.90
2022-10-12T01:16:00.817Z,11.82
2022-10-12T01:18:33.490Z,10.18
2022-10-12T01:21:12.088Z,13.30
2022-10-12T01:24:22.229Z,12.55
2022-10-12T01:27:27.459Z,11.02
2022-10-12T01:30:25.127Z,9.18
2022-10-12T01:33:14.099Z,9.07
2022-10-12T01:35:53.014Z,12.02
2022-10-12T01:38:41.777Z,10.77
2022-10-12T01:41:15.509Z,13.52
2022-10-12T01:43:44.993Z,15.90
2022-10-12T01:46:46.415Z,14.30
2022-10-12T01:49:18.064Z,33.33
2022-10-12T01:52:16.754Z,15.00
2022-10-12T01:55:03.502Z,24.48
2022-10-12T02:00:08.010Z,34.88
2022-10-12T02:02:47.837Z,17.45
2022-10-12T02:05:23.467Z,8.07
2022-10-12T02:07:55.008Z,8.35
2022-10-12T02:10:27.048Z,8.60
2022-10-12T02:12:58.275Z,8.63
2022-10-12T02:15:28.057Z,7.72
2022-10-12T02:17:59.518Z,8.30
2022-10-12T02:20:28.990Z,7.88
2022-10-12T02:23:03.239Z,8.55
2022-10-12T02:25:34.778Z,7.57
2022-10-12T02:28:07.994Z,7.25
2022-10-12T02:30:39.537Z,6.43
2022-10-12T02:33:14.428Z,6.55
2022-10-12T02:35:50.769Z,6.53
2022-10-12T02:40:54.366Z,6.85
2022-10-12T02:43:26.330Z,7.30
2022-10-12T02:45:55.993Z,9.35
2022-10-12T02:48:26.726Z,8.77
2022-10-12T02:50:57.889Z,8.43
2022-10-12T02:53:28.930Z,8.93
2022-10-12T02:56:02.387Z,8.52
2022-10-12T02:58:30.594Z,8.68
2022-10-12T03:00:58.963Z,8.45
2022-10-12T03:03:28.559Z,11.65
2022-10-12T03:05:56.907Z,22.38
2022-10-12T03:08:25.071Z,13.65
2022-10-12T03:10:53.077Z,9.25
2022-10-12T03:13:21.274Z,27.63
2022-10-12T03:15:49.354Z,49.08
2022-10-12T03:18:17.461Z,11.35
2022-10-12T03:20:50.365Z,12.60
2022-10-12T03:23:18.455Z,11.95
2022-10-12T03:25:46.530Z,22.73
2022-10-12T03:28:14.653Z,49.10
2022-10-12T03:30:43.851Z,58.35
2022-10-12T03:33:12.063Z,30.70
2022-10-12T03:35:40.448Z,170.88
2022-10-12T03:38:09.944Z,38.05
2022-10-12T03:40:39.064Z,170.40
2022-10-12T03:43:07.188Z,130.35
2022-10-12T03:45:35.646Z,73.10
2022-10-12T03:48:05.063Z,171.85
2022-10-12T03:50:34.870Z,129.07
2022-10-12T03:53:03.834Z,107.43
2022-10-12T03:55:33.466Z,139.43
2022-10-12T03:58:01.634Z,170.10
2022-10-12T04:00:29.865Z,214.77
2022-10-12T04:02:58.464Z,159.38
2022-10-12T04:05:26.503Z,117.00
2022-10-12T04:07:54.681Z,157.10
2022-10-12T04:10:22.705Z,184.02
2022-10-12T04:12:52.154Z,224.88
2022-10-12T04:15:20.180Z,210.13
2022-10-12T04:17:48.351Z,149.93
2022-10-12T04:20:16.363Z,172.75
2022-10-12T04:22:44.475Z,164.38
2022-10-12T04:25:13.035Z,276.00
2022-10-12T04:27:41.296Z,230.82
2022-10-12T04:30:12.583Z,348.15
2022-10-12T04:32:40.668Z,321.33
2022-10-12T04:35:09.082Z,231.50
2022-10-12T04:37:37.606Z,131.13
2022-10-12T04:40:06.737Z,116.95
2022-10-12T04:42:34.899Z,150.25
2022-10-12T04:45:02.897Z,148.23
2022-10-12T04:47:34.366Z,155.10
2022-10-12T04:50:02.467Z,49.53
2022-10-12T04:52:30.438Z,58.47
2022-10-12T04:54:58.761Z,91.65
2022-10-12T04:57:26.817Z,117.78
2022-10-12T04:59:55.350Z,100.32
2022-10-12T05:02:23.442Z,86.20
2022-10-12T05:04:53.223Z,104.03
2022-10-12T05:07:21.260Z,138.23
2022-10-12T05:09:49.390Z,165.77
2022-10-12T05:12:18.005Z,116.90
2022-10-12T05:14:46.099Z,157.88
2022-10-12T05:17:14.152Z,210.00
2022-10-12T05:19:42.186Z,196.13
2022-10-12T05:22:11.593Z,194.80
2022-10-12T05:24:39.807Z,217.07
2022-10-12T05:27:07.801Z,215.02
2022-10-12T05:29:35.999Z,157.80
2022-10-12T05:32:04.161Z,68.80
2022-10-12T05:34:32.277Z,97.07
2022-10-12T05:37:00.277Z,78.40
2022-10-12T05:39:29.724Z,100.93
2022-10-12T05:41:58.748Z,132.38
2022-10-12T05:44:26.794Z,99.60
2022-10-12T05:46:54.896Z,104.88
2022-10-12T05:49:22.925Z,84.18
2022-10-12T05:51:55.904Z,137.75
2022-10-12T05:54:23.982Z,121.40
2022-10-12T05:56:53.540Z,129.27
2022-10-12T05:59:21.707Z,81.22
2022-10-12T06:01:50.026Z,134.00
2022-10-12T06:04:18.462Z,126.45
2022-10-12T06:06:46.547Z,135.13
2022-10-12T06:09:14.614Z,127.75
2022-10-12T06:11:42.654Z,116.50
2022-10-12T06:14:12.028Z,101.40
2022-10-12T06:16:40.064Z,100.50
2022-10-12T06:19:08.369Z,54.28
2022-10-12T06:21:36.403Z,122.25
2022-10-12T06:24:04.668Z,103.80
2022-10-12T06:26:32.776Z,108.10
2022-10-12T06:29:01.306Z,126.82
2022-10-12T06:31:32.363Z,105.40
2022-10-12T06:34:00.619Z,55.72
2022-10-12T06:36:28.670Z,59.75
2022-10-12T06:38:56.723Z,130.48
2022-10-12T06:41:24.677Z,133.23
2022-10-12T06:43:52.720Z,138.15
2022-10-12T06:46:20.714Z,123.05
2022-10-12T06:48:50.116Z,152.35
2022-10-12T06:51:18.089Z,160.70
2022-10-12T06:53:46.259Z,149.05
2022-10-12T06:56:14.604Z,209.45
2022-10-12T06:58:42.684Z,220.75
2022-10-12T07:01:11.344Z,181.05
2022-10-12T07:03:39.406Z,187.38
2022-10-12T07:06:11.356Z,186.82
2022-10-12T07:08:40.993Z,221.50
2022-10-12T07:11:11.329Z,226.90
2022-10-12T07:13:39.598Z,231.93
2022-10-12T07:16:08.187Z,227.30
2022-10-12T07:18:36.462Z,256.45
2022-10-12T07:21:04.762Z,289.10
2022-10-12T07:23:40.187Z,306.20
2022-10-12T07:26:11.309Z,324.58
2022-10-12T07:28:39.464Z,345.00
2022-10-12T07:31:09.725Z,342.77
2022-10-12T07:33:39.521Z,252.95
2022-10-12T07:36:20.860Z,309.58
2022-10-12T07:38:51.304Z,290.75
2022-10-12T07:41:19.612Z,311.70
2022-10-12T07:43:47.713Z,277.85
2022-10-12T07:46:15.729Z,260.20
2022-10-12T07:48:49.095Z,272.45
2022-10-12T07:51:18.652Z,274.52
2022-10-12T07:53:46.835Z,273.02
2022-10-12T07:56:16.666Z,289.70
2022-10-12T07:58:48.612Z,315.70
2022-10-12T08:01:17.362Z,292.13
2022-10-12T08:03:45.472Z,274.58
2022-10-12T08:06:14.996Z,352.40
2022-10-12T08:08:43.452Z,334.75
2022-10-12T08:11:12.883Z,313.83
2022-10-12T08:13:43.183Z,353.42
2022-10-12T08:16:13.521Z,337.50
2022-10-12T08:18:41.989Z,380.25
2022-10-12T08:21:34.907Z,398.75
2022-10-12T08:24:03.588Z,437.88
2022-10-12T08:26:33.165Z,575.17
2022-10-12T08:29:03.334Z,543.53
2022-10-12T08:31:31.462Z,451.85
2022-10-12T08:34:00.115Z,480.73
2022-10-12T08:36:29.184Z,463.08
2022-10-12T08:38:57.182Z,497.40
2022-10-12T08:41:35.667Z,577.97
2022-10-12T08:44:30.087Z,577.92
2022-10-12T08:47:01.449Z,550.20
2022-10-12T08:49:33.176Z,578.05
2022-10-12T08:52:06.333Z,650.40
2022-10-12T08:54:42.401Z,599.28
2022-10-12T08:57:16.423Z,666.42
2022-10-12T08:59:46.434Z,611.10
2022-10-12T09:02:34.689Z,602.20
2022-10-12T09:05:07.916Z,654.67
2022-10-12T09:07:40.226Z,662.22
2022-10-12T09:10:23.246Z,623.22
2022-10-12T09:13:00.196Z,660.13
2022-10-12T09:15:33.946Z,803.95
2022-10-12T09:18:03.887Z,839.78
2022-10-12T09:20:35.379Z,798.47
2022-10-12T09:23:18.445Z,788.60
2022-10-12T09:25:47.227Z,772.60
2022-10-12T09:28:22.190Z,797.22
2022-10-12T09:31:06.293Z,783.83
2022-10-12T09:33:42.141Z,883.95
2022-10-12T09:36:12.017Z,872.85
2022-10-12T09:38:40.204Z,769.53
2022-10-12T09:41:17.888Z,772.20
2022-10-12T09:43:46.527Z,771.38
2022-10-12T09:46:17.615Z,840.60
2022-10-12T09:49:01.450Z,762.90
2022-10-12T09:51:31.003Z,800.15
2022-10-12T09:54:03.480Z,810.22
2022-10-12T09:56:39.884Z,822.95
2022-10-12T09:59:19.146Z,811.53
2022-10-12T10:02:00.529Z,838.05
2022-10-12T10:04:29.828Z,837.60
2022-10-12T10:07:14.756Z,926.38
2022-10-12T10:09:42.870Z,930.45
2022-10-12T10:12:22.682Z,849.88
2022-10-12T10:14:52.017Z,913.60
2022-10-12T10:17:27.587Z,908.65
2022-10-12T10:19:57.499Z,821.33
2022-10-12T10:22:26.567Z,886.45
2022-10-12T10:25:00.141Z,840.45
2022-10-12T10:27:33.076Z,843.30
2022-10-12T10:30:32.416Z,888.65
2022-10-12T10:33:18.666Z,885.53
2022-10-12T10:36:02.185Z,829.25
2022-10-12T10:38:33.921Z,887.85
2022-10-12T10:41:06.274Z,816.97
2022-10-12T10:43:35.127Z,831.08
2022-10-12T10:46:05.462Z,813.00
2022-10-12T10:48:51.336Z,803.42
2022-10-12T10:51:19.663Z,771.25
2022-10-12T10:53:49.387Z,755.17
2022-10-12T10:56:22.894Z,800.83
2022-10-12T10:58:53.661Z,799.20
2022-10-12T11:01:26.723Z,750.00
2022-10-12T11:04:02.293Z,728.25
2022-10-12T11:06:38.239Z,721.17
2022-10-12T11:11:39.200Z,723.22
2022-10-12T11:14:16.382Z,774.92
2022-10-12T11:16:48.635Z,835.45
2022-10-12T11:19:27.611Z,767.22
2022-10-12T11:21:59.023Z,790.55
2022-10-12T11:24:33.589Z,856.22
2022-10-12T11:27:07.206Z,799.72
2022-10-12T11:29:37.838Z,830.38
2022-10-12T11:32:14.494Z,879.58
2022-10-12T11:34:50.662Z,837.33
2022-10-12T11:37:21.801Z,816.03
2022-10-12T11:39:53.728Z,822.25
2022-10-12T11:42:29.672Z,883.25
2022-10-12T11:45:00.674Z,820.78
2022-10-12T11:47:37.218Z,812.90
2022-10-12T11:50:16.021Z,882.05
2022-10-12T11:52:46.434Z,843.33
2022-10-12T11:55:36.244Z,909.90
2022-10-12T11:58:13.744Z,923.60
2022-10-12T12:01:04.201Z,854.53
2022-10-12T12:03:55.706Z,921.60
2022-10-12T12:06:48.875Z,913.65
2022-10-12T12:09:39.650Z,920.45
2022-10-12T12:12:21.774Z,849.90
2022-10-12T12:15:21.788Z,924.35
2022-10-12T12:18:13.278Z,933.95
2022-10-12T12:21:04.859Z,855.28
2022-10-12T12:23:41.883Z,916.97
2022-10-12T12:26:19.084Z,920.53
2022-10-12T12:28:49.063Z,844.55
2022-10-12T12:31:25.841Z,908.42
2022-10-12T12:34:04.936Z,914.40
2022-10-12T12:36:36.352Z,905.72
2022-10-12T12:39:09.175Z,917.88
2022-10-12T12:41:59.074Z,925.88
2022-10-12T12:44:41.596Z,844.05
2022-10-12T12:47:46.498Z,853.85
2022-10-12T12:50:35.474Z,942.93
2022-10-12T12:53:08.208Z,891.08
2022-10-12T12:55:59.695Z,890.00
2022-10-12T12:58:51.486Z,889.53
2022-10-12T13:01:39.662Z,880.45
2022-10-12T13:04:43.681Z,916.92
2022-10-12T13:07:58.177Z,894.42
2022-10-12T13:10:45.146Z,848.10
2022-10-12T13:13:29.079Z,934.38
2022-10-12T13:16:08.800Z,892.53
2022-10-12T13:18:58.845Z,931.90
2022-10-12T13:21:29.445Z,866.42
2022-10-12T13:24:04.476Z,879.60
2022-10-12T13:26:34.827Z,901.88
2022-10-12T13:29:13.621Z,931.35
2022-10-12T13:31:45.483Z,939.40
2022-10-12T13:34:18.869Z,883.95
2022-10-12T13:36:56.503Z,879.22
2022-10-12T13:39:24.741Z,931.47
2022-10-12T13:41:55.802Z,928.17
2022-10-12T13:44:28.313Z,888.22
2022-10-12T13:46:59.098Z,934.60
2022-10-12T13:49:29.278Z,889.25
2022-10-12T13:51:59.399Z,935.85
2022-10-12T13:54:29.198Z,928.90
2022-10-12T13:57:02.937Z,897.42
2022-10-12T13:59:38.948Z,894.05
2022-10-12T14:02:19.143Z,896.03
2022-10-12T14:04:47.458Z,933.13
2022-10-12T14:07:21.675Z,941.55
2022-10-12T14:09:54.470Z,941.30
2022-10-12T14:12:25.626Z,935.15
2022-10-12T14:14:55.528Z,945.78
2022-10-12T14:17:24.916Z,942.25
2022-10-12T14:19:54.395Z,948.38
2022-10-12T14:22:25.215Z,949.50
2022-10-12T14:24:58.109Z,951.67
2022-10-12T14:27:29.529Z,944.45
2022-10-12T14:30:07.586Z,940.38
2022-10-12T14:32:44.157Z,904.03
2022-10-12T14:35:15.578Z,896.92
2022-10-12T14:37:43.672Z,895.45
2022-10-12T14:40:31.838Z,939.58
2022-10-12T14:43:04.694Z,902.20
2022-10-12T14:45:34.979Z,942.88
2022-10-12T14:48:04.976Z,902.40
2022-10-12T14:50:34.381Z,947.42
2022-10-12T14:53:04.954Z,912.60
2022-10-12T14:55:34.913Z,911.08
2022-10-12T14:58:03.672Z,914.50
2022-10-12T15:00:35.152Z,950.95
2022-10-12T15:03:04.696Z,917.13
2022-10-12T15:05:34.124Z,957.08
2022-10-12T15:08:07.357Z,949.88
2022-10-12T15:10:36.535Z,877.72
2022-10-12T15:13:04.814Z,946.53
2022-10-12T15:15:37.737Z,899.80
2022-10-12T15:18:05.881Z,956.67
2022-10-12T15:20:34.714Z,958.80
2022-10-12T15:23:04.989Z,944.40
2022-10-12T15:25:42.893Z,952.78
2022-10-12T15:28:11.110Z,933.25
2022-10-12T15:31:04.252Z,956.75
2022-10-12T15:33:29.178Z,936.97
2022-10-12T15:35:57.538Z,999.00
2022-10-12T15:38:26.357Z,999.90
2022-10-12T15:40:57.950Z,958.83
2022-10-12T15:43:26.621Z,999.90
2022-10-12T15:45:56.965Z,966.13
2022-10-12T15:48:25.011Z,999.90
2022-10-12T15:50:53.069Z,999.90
2022-10-12T15:53:23.979Z,999.90
2022-10-12T15:55:52.621Z,948.30
2022-10-12T15:58:20.665Z,999.90
2022-10-12T16:00:49.366Z,590.22
2022-10-12T16:03:25.711Z,915.22
2022-10-12T16:05:54.498Z,125.18
2022-10-12T16:08:22.529Z,12.48
2022-10-12T16:10:51.485Z,9.18
2022-10-12T16:13:19.651Z,10.98
2022-10-12T16:15:47.889Z,15.70
2022-10-12T16:18:16.058Z,19.63
2022-10-12T16:20:51.097Z,10.45
2022-10-12T16:23:24.674Z,15.15
2022-10-12T16:25:53.073Z,9.70
2022-10-12T16:28:22.404Z,7.80
2022-10-12T16:30:50.887Z,106.07
2022-10-12T16:33:19.646Z,21.38
2022-10-12T16:35:49.119Z,7.30
2022-10-12T16:38:19.821Z,6.07
2022-10-12T16:40:49.914Z,7.88
2022-10-12T16:43:18.239Z,9.82
2022-10-12T16:45:46.229Z,10.88
2022-10-12T16:48:14.274Z,113.53
2022-10-12T16:50:43.069Z,320.23
2022-10-12T16:53:12.512Z,112.25
2022-10-12T16:55:40.539Z,9.55
2022-10-12T16:58:08.716Z,11.00
2022-10-12T17:00:36.870Z,81.45
2022-10-12T17:03:05.110Z,9.23
2022-10-12T17:05:33.279Z,14.95
2022-10-12T17:08:01.685Z,20.95
2022-10-12T17:10:31.097Z,36.53
2022-10-12T17:12:59.212Z,87.38
2022-10-12T17:15:27.237Z,186.27
2022-10-12T17:17:56.257Z,9.95
2022-10-12T17:20:24.308Z,8.88
2022-10-12T17:22:52.323Z,60.65
2022-10-12T17:25:20.511Z,184.85
2022-10-12T17:27:49.872Z,194.57
2022-10-12T17:30:18.285Z,150.88
2022-10-12T17:32:46.403Z,90.40
2022-10-12T17:35:14.566Z,41.33
2022-10-12T17:37:42.618Z,57.65
2022-10-12T17:40:11.612Z,61.40
2022-10-12T17:42:39.694Z,17.75
2022-10-12T17:45:10.031Z,34.33
2022-10-12T17:47:39.265Z,9.43
2022-10-12T17:50:08.004Z,40.83
2022-10-12T17:52:40.408Z,9.73
2022-10-12T17:55:15.275Z,10.50
2022-10-12T17:57:57.514Z,10.77
2022-10-12T18:00:26.909Z,10.20
2022-10-12T18:02:55.051Z,12.18
2022-10-12T18:05:23.029Z,9.27
2022-10-12T18:07:51.227Z,6.47
2022-10-12T18:10:19.321Z,8.98
2022-10-12T18:12:47.518Z,6.60
2022-10-12T18:15:15.674Z,8.00
2022-10-12T18:17:45.064Z,7.28
2022-10-12T18:20:13.391Z,7.72
2022-10-12T18:22:41.462Z,8.13
2022-10-12T18:25:09.877Z,10.57
2022-10-12T18:27:37.866Z,11.05
2022-10-12T18:30:07.004Z,14.45
2022-10-12T18:32:35.226Z,14.35
2022-10-12T18:35:04.900Z,9.77
2022-10-12T18:37:33.627Z,13.77
2022-10-12T18:40:01.633Z,17.60
2022-10-12T18:42:29.610Z,12.68
2022-10-12T18:44:57.888Z,19.25
2022-10-12T18:47:25.954Z,11.55
2022-10-12T18:49:54.129Z,13.63
2022-10-12T18:52:23.525Z,10.13
2022-10-12T18:54:51.623Z,13.00
2022-10-12T18:57:19.709Z,9.63
2022-10-12T18:59:47.893Z,9.35
2022-10-12T19:02:17.431Z,10.70
2022-10-12T19:04:45.797Z,12.65
2022-10-12T19:07:14.394Z,9.77
2022-10-12T19:09:44.084Z,11.65
2022-10-12T19:12:12.850Z,12.00
2022-10-12T19:14:41.150Z,10.60
2022-10-12T19:17:09.269Z,11.48
2022-10-12T19:19:37.391Z,10.95
2022-10-12T19:22:05.424Z,11.07
2022-10-12T19:24:33.498Z,14.13
2022-10-12T19:27:03.984Z,14.68
2022-10-12T19:29:32.204Z,29.60
2022-10-12T19:32:00.194Z,10.85
2022-10-12T19:34:28.720Z,11.60
2022-10-12T19:36:56.909Z,9.40
2022-10-12T19:39:25.729Z,8.77
2022-10-12T19:41:53.886Z,9.75
2022-10-12T19:44:23.279Z,9.65
2022-10-12T19:46:53.533Z,11.00
2022-10-12T19:49:21.883Z,20.20
2022-10-12T19:51:50.001Z,11.50
2022-10-12T19:54:19.573Z,13.10
2022-10-12T19:56:47.734Z,11.98
2022-10-12T19:59:16.121Z,10.73
2022-10-12T20:01:48.142Z,11.57
2022-10-12T20:04:16.788Z,12.10
2022-10-12T20:06:44.873Z,11.35
2022-10-12T20:09:13.515Z,12.05
2022-10-12T20:11:41.610Z,13.43
2022-10-12T20:14:11.188Z,14.60
2022-10-12T20:16:39.583Z,14.57
2022-10-12T20:19:08.970Z,14.60
2022-10-12T20:21:37.627Z,15.13
2022-10-12T20:24:08.913Z,13.35
2022-10-12T20:26:36.972Z,12.48
2022-10-12T20:29:05.065Z,13.70
2022-10-12T20:31:33.149Z,12.55
2022-10-12T20:34:08.335Z,15.82
2022-10-12T20:36:36.419Z,13.57
2022-10-12T20:39:04.589Z,13.10
2022-10-12T20:41:32.653Z,13.43
2022-10-12T20:44:01.753Z,14.90
2022-10-12T20:46:30.600Z,13.13
2022-10-12T20:49:00.119Z,14.57
2022-10-12T20:51:32.883Z,13.95
2022-10-12T20:54:02.245Z,13.70
2022-10-12T20:56:31.588Z,16.25
2022-10-12T20:58:59.964Z,19.40
2022-10-12T21:01:28.496Z,19.35
2022-10-12T21:03:57.150Z,16.45
2022-10-12T21:06:25.422Z,20.75
2022-10-12T21:08:56.345Z,18.85
2022-10-12T21:11:25.415Z,15.63
2022-10-12T21:13:53.762Z,18.52
2022-10-12T21:16:21.948Z,17.75
2022-10-12T21:18:50.216Z,16.25
2022-10-12T21:21:20.233Z,17.95
2022-10-12T21:23:55.940Z,12.98
2022-10-12T21:26:25.723Z,12.15
2022-10-12T21:28:54.521Z,12.88
2022-10-12T21:31:26.034Z,11.52
2022-10-12T21:33:56.412Z,13.52
2022-10-12T21:36:26.721Z,14.77
2022-10-12T21:38:56.194Z,14.77
2022-10-12T21:41:25.956Z,14.25
2022-10-12T21:43:54.637Z,18.15
2022-10-12T21:46:24.415Z,19.63
2022-10-12T21:48:53.430Z,14.95
2022-10-12T21:51:23.225Z,17.17
2022-10-12T21:53:52.132Z,15.50
2022-10-12T21:56:23.948Z,16.70
2022-10-12T21:58:53.619Z,20.38
2022-10-12T22:01:23.079Z,17.30
2022-10-12T22:03:54.599Z,25.65
2022-10-12T22:06:24.619Z,16.30
2022-10-12T22:08:55.169Z,28.35
2022-10-12T22:11:24.982Z,17.30
2022-10-12T22:13:54.113Z,11.77
2022-10-12T22:16:22.134Z,20.00
2022-10-12T22:18:50.202Z,29.17
2022-10-12T22:21:20.439Z,20.30
2022-10-12T22:23:48.519Z,15.85
2022-10-12T22:26:18.579Z,15.45
2022-10-12T22:28:55.674Z,23.73
2022-10-12T22:31:25.588Z,24.38
2022-10-12T22:33:54.236Z,28.05
2022-10-12T22:36:22.341Z,54.55
2022-10-12T22:38:50.384Z,52.17
2022-10-12T22:41:19.883Z,33.08
2022-10-12T22:43:48.551Z,34.67
2022-10-12T22:46:18.503Z,29.30
2022-10-12T22:48:47.053Z,82.75
2022-10-12T22:51:18.281Z,88.97
2022-10-12T22:53:46.337Z,96.47
2022-10-12T22:56:17.449Z,74.18
2022-10-12T22:58:46.697Z,47.83
2022-10-12T23:01:17.825Z,89.95
2022-10-12T23:03:46.221Z,18.88
2022-10-12T23:06:16.614Z,33.63
2022-10-12T23:08:45.496Z,96.55
2022-10-12T23:11:16.502Z,59.42
2022-10-12T23:13:45.199Z,24.02
2022-10-12T23:16:15.420Z,11.85
2022-10-12T23:18:45.334Z,25.92
2022-10-12T23:21:15.318Z,29.40
2022-10-12T23:23:45.111Z,11.20
2022-10-12T23:26:15.503Z,51.85
2022-10-12T23:28:43.866Z,13.20
2022-10-12T23:31:18.070Z,14.00
2022-10-12T23:33:48.113Z,29.92
2022-10-12T23:36:18.214Z,36.85
2022-10-12T23:38:46.762Z,15.88
2022-10-12T23:41:15.188Z,31.65
2022-10-12T23:43:43.363Z,57.53
2022-10-12T23:46:12.599Z,57.60
2022-10-12T23:48:40.982Z,13.80
2022-10-12T23:51:10.805Z,15.45
2022-10-12T23:53:39.335Z,16.52
2022-10-12T23:56:08.397Z,16.15
2022-10-12T23:58:37.064Z,21.08
